createdAt,value
2019-02-24T00:01:23.189Z,40.92
2019-02-24T00:03:50.940Z,39.76
2019-02-24T00:06:19.788Z,41.10
2019-02-24T00:08:47.556Z,40.04
2019-02-24T00:11:16.072Z,40.34
2019-02-24T00:13:45.541Z,40.48
2019-02-24T00:16:13.320Z,40.55
2019-02-24T00:18:43.620Z,39.84
2019-02-24T00:21:11.398Z,41.17
2019-02-24T00:23:40.152Z,39.82
2019-02-24T00:26:07.972Z,40.08
2019-02-24T00:28:35.740Z,39.92
2019-02-24T00:31:03.492Z,40.86
2019-02-24T00:33:31.366Z,41.76
2019-02-24T00:35:59.143Z,40.96
2019-02-24T00:38:26.981Z,40.96
2019-02-24T00:40:54.755Z,41.11
2019-02-24T00:43:22.532Z,40.84
2019-02-24T00:45:50.330Z,40.62
2019-02-24T00:48:18.206Z,41.87
2019-02-24T00:50:45.976Z,40.21
2019-02-24T00:53:13.723Z,41.53
2019-02-24T00:55:43.516Z,40.59
2019-02-24T00:58:16.125Z,41.68
2019-02-24T01:00:40.531Z,41.25
2019-02-24T01:03:08.289Z,41.43
2019-02-24T01:05:36.037Z,42.47
2019-02-24T01:08:03.796Z,41.68
2019-02-24T01:10:31.548Z,40.76
2019-02-24T01:12:59.271Z,42.73
2019-02-24T01:15:27.072Z,41.16
2019-02-24T01:17:54.833Z,41.28
2019-02-24T01:20:22.614Z,41.09
2019-02-24T01:22:50.376Z,40.62
2019-02-24T01:25:18.164Z,40.65
2019-02-24T01:27:45.916Z,41.81
2019-02-24T01:30:13.782Z,41.32
2019-02-24T01:32:41.644Z,41.09
2019-02-24T01:35:09.449Z,40.18
2019-02-24T01:37:37.228Z,40.62
2019-02-24T01:40:05.056Z,40.94
2019-02-24T01:42:44.059Z,40.30
2019-02-24T01:45:11.847Z,40.48
2019-02-24T01:47:39.631Z,40.85
2019-02-24T01:50:07.828Z,40.45
2019-02-24T01:52:35.665Z,40.84
2019-02-24T01:55:03.404Z,40.83
2019-02-24T01:57:31.189Z,40.82
2019-02-24T01:59:58.967Z,40.32
2019-02-24T02:02:26.746Z,40.18
2019-02-24T02:04:54.516Z,40.52
2019-02-24T02:07:22.255Z,41.16
2019-02-24T02:09:50.062Z,40.15
2019-02-24T02:12:17.832Z,40.46
2019-02-24T02:14:45.661Z,41.33
2019-02-24T02:17:14.674Z,40.39
2019-02-24T02:19:46.215Z,40.85
2019-02-24T02:22:13.999Z,41.00
2019-02-24T02:24:42.442Z,40.04
2019-02-24T02:27:10.364Z,40.23
2019-02-24T02:29:38.136Z,40.28
2019-02-24T02:32:05.975Z,40.63
2019-02-24T02:34:33.805Z,40.23
2019-02-24T02:37:01.636Z,40.18
2019-02-24T02:39:29.438Z,40.19
2019-02-24T02:41:57.204Z,40.10
2019-02-24T02:44:25.052Z,40.25
2019-02-24T02:46:52.893Z,40.48
2019-02-24T02:49:20.649Z,40.17
2019-02-24T02:51:48.454Z,41.05
2019-02-24T02:54:19.184Z,40.63
2019-02-24T02:56:47.049Z,40.62
2019-02-24T02:59:14.983Z,41.70
2019-02-24T03:01:42.744Z,40.29
2019-02-24T03:04:10.504Z,40.51
2019-02-24T03:06:47.110Z,40.42
2019-02-24T03:09:14.835Z,40.53
2019-02-24T03:11:42.586Z,41.27
2019-02-24T03:14:10.503Z,40.26
2019-02-24T03:16:38.305Z,40.94
2019-02-24T03:19:06.085Z,40.97
2019-02-24T03:21:33.917Z,40.78
2019-02-24T03:24:01.689Z,41.04
2019-02-24T03:26:29.490Z,41.33
2019-02-24T03:29:03.816Z,41.43
2019-02-24T03:31:26.932Z,42.49
2019-02-24T03:33:54.688Z,42.48
2019-02-24T03:36:31.725Z,41.70
2019-02-24T03:38:56.237Z,41.51
2019-02-24T03:41:24.029Z,42.26
2019-02-24T03:43:51.862Z,41.33
2019-02-24T03:46:19.615Z,41.18
2019-02-24T03:48:47.379Z,41.42
2019-02-24T03:51:15.253Z,41.30
2019-02-24T03:53:43.012Z,40.91
2019-02-24T03:56:10.834Z,41.28
2019-02-24T03:58:38.634Z,40.69
2019-02-24T04:01:06.373Z,40.81
2019-02-24T04:03:34.167Z,40.97
2019-02-24T04:06:04.042Z,40.57
2019-02-24T04:08:31.812Z,41.02
2019-02-24T04:10:59.571Z,41.55
2019-02-24T04:13:27.337Z,41.03
2019-02-24T04:15:55.256Z,41.17
2019-02-24T04:18:23.013Z,42.36
2019-02-24T04:20:56.818Z,40.50
2019-02-24T04:23:23.030Z,41.97
2019-02-24T04:25:50.790Z,40.49
2019-02-24T04:28:18.577Z,41.49
2019-02-24T04:30:46.377Z,41.84
2019-02-24T04:33:14.222Z,40.93
2019-02-24T04:35:41.987Z,41.58
2019-02-24T04:38:09.753Z,41.13
2019-02-24T04:40:37.573Z,40.81
2019-02-24T04:43:05.410Z,41.37
2019-02-24T04:45:33.152Z,41.15
2019-02-24T04:48:00.983Z,41.08
2019-02-24T04:50:28.751Z,40.95
2019-02-24T04:52:56.604Z,41.35
2019-02-24T04:55:24.433Z,41.40
2019-02-24T04:57:52.192Z,41.13
2019-02-24T05:00:20.097Z,41.56
2019-02-24T05:02:49.107Z,40.77
2019-02-24T05:05:16.945Z,41.77
2019-02-24T05:07:44.694Z,41.74
2019-02-24T05:10:12.581Z,42.04
2019-02-24T05:12:40.421Z,41.37
2019-02-24T05:15:10.223Z,42.03
2019-02-24T05:17:38.768Z,42.29
2019-02-24T05:20:06.909Z,41.48
2019-02-24T05:22:34.635Z,41.99
2019-02-24T05:25:03.497Z,40.84
2019-02-24T05:27:31.269Z,42.21
2019-02-24T05:29:59.061Z,41.85
2019-02-24T05:32:26.859Z,41.44
2019-02-24T05:34:54.892Z,42.14
2019-02-24T05:37:22.668Z,40.85
2019-02-24T05:39:50.448Z,41.79
2019-02-24T05:42:18.238Z,41.23
2019-02-24T05:44:51.508Z,41.43
2019-02-24T05:47:19.718Z,41.38
2019-02-24T05:49:47.535Z,41.07
2019-02-24T05:52:15.307Z,42.25
2019-02-24T05:54:46.075Z,42.27
2019-02-24T05:57:13.905Z,42.20
2019-02-24T05:59:41.652Z,41.75
2019-02-24T06:02:09.435Z,42.27
2019-02-24T06:04:37.237Z,42.89
2019-02-24T06:07:05.051Z,41.81
2019-02-24T06:09:32.846Z,42.67
2019-02-24T06:12:00.638Z,41.77
2019-02-24T06:14:28.429Z,42.49
2019-02-24T06:16:56.196Z,43.57
2019-02-24T06:19:24.126Z,42.70
2019-02-24T06:21:53.997Z,42.35
2019-02-24T06:24:21.790Z,43.97
2019-02-24T06:26:51.704Z,42.98
2019-02-24T06:29:19.060Z,43.00
2019-02-24T06:31:46.815Z,42.51
2019-02-24T06:34:14.735Z,42.93
2019-02-24T06:36:42.491Z,42.31
2019-02-24T06:39:10.254Z,43.25
2019-02-24T06:41:38.022Z,42.61
2019-02-24T06:44:05.772Z,43.41
2019-02-24T06:46:33.600Z,43.06
2019-02-24T06:49:01.472Z,42.18
2019-02-24T06:51:29.197Z,42.38
2019-02-24T06:53:56.970Z,41.30
2019-02-24T06:56:24.786Z,41.05
2019-02-24T06:58:52.588Z,40.61
2019-02-24T07:01:23.616Z,41.13
2019-02-24T07:03:51.361Z,41.75
2019-02-24T07:06:23.277Z,43.74
2019-02-24T07:08:54.204Z,40.93
2019-02-24T07:11:25.184Z,41.05
2019-02-24T07:13:52.944Z,42.80
2019-02-24T07:16:20.687Z,42.54
2019-02-24T07:18:48.445Z,42.30
2019-02-24T07:21:19.212Z,42.87
2019-02-24T07:23:47.551Z,42.55
2019-02-24T07:26:15.448Z,43.68
2019-02-24T07:28:43.225Z,42.50
2019-02-24T07:31:11.010Z,43.73
2019-02-24T07:33:38.946Z,42.74
2019-02-24T07:36:06.721Z,43.03
2019-02-24T07:38:34.564Z,43.43
2019-02-24T07:41:02.326Z,42.26
2019-02-24T07:43:33.621Z,43.13
2019-02-24T07:46:01.404Z,41.79
2019-02-24T07:48:29.167Z,44.29
2019-02-24T07:50:56.980Z,42.69
2019-02-24T07:53:24.754Z,41.51
2019-02-24T07:55:52.509Z,40.94
2019-02-24T07:58:20.304Z,41.34
2019-02-24T08:00:48.142Z,46.09
2019-02-24T08:03:15.921Z,41.19
2019-02-24T08:05:43.784Z,44.31
2019-02-24T08:08:16.409Z,41.35
2019-02-24T08:10:41.070Z,44.07
2019-02-24T08:13:08.804Z,41.19
2019-02-24T08:15:36.598Z,43.13
2019-02-24T08:18:04.359Z,41.23
2019-02-24T08:20:33.429Z,41.66
2019-02-24T08:23:07.546Z,42.55
2019-02-24T08:25:32.528Z,42.05
2019-02-24T08:28:00.279Z,43.21
2019-02-24T08:30:28.031Z,41.40
2019-02-24T08:32:55.809Z,41.51
2019-02-24T08:35:25.596Z,41.40
2019-02-24T08:37:53.354Z,40.89
2019-02-24T08:40:21.632Z,41.50
2019-02-24T08:42:49.471Z,41.07
2019-02-24T08:45:17.386Z,41.60
2019-02-24T08:47:45.285Z,41.16
2019-02-24T08:50:13.044Z,41.74
2019-02-24T08:52:41.950Z,41.63
2019-02-24T08:55:12.254Z,41.90
2019-02-24T08:57:40.080Z,41.46
2019-02-24T09:00:08.538Z,41.58
2019-02-24T09:02:37.976Z,41.59
2019-02-24T09:05:05.825Z,41.69
2019-02-24T09:07:33.646Z,41.57
2019-02-24T09:10:03.835Z,41.08
2019-02-24T09:12:31.656Z,40.97
2019-02-24T09:14:59.744Z,41.57
2019-02-24T09:17:28.694Z,41.40
2019-02-24T09:19:56.702Z,41.23
2019-02-24T09:22:30.437Z,41.20
2019-02-24T09:24:58.253Z,41.59
2019-02-24T09:27:26.028Z,41.88
2019-02-24T09:29:53.885Z,41.32
2019-02-24T09:32:21.680Z,43.81
2019-02-24T09:34:49.504Z,42.79
2019-02-24T09:37:17.313Z,41.38
2019-02-24T09:39:45.138Z,41.25
2019-02-24T09:42:12.972Z,42.18
2019-02-24T09:44:40.768Z,45.22
2019-02-24T09:47:08.522Z,44.59
2019-02-24T09:49:36.305Z,42.97
2019-02-24T09:52:04.066Z,42.13
2019-02-24T09:54:31.809Z,41.75
2019-02-24T09:56:59.556Z,43.62
2019-02-24T09:59:27.307Z,41.82
2019-02-24T10:01:55.087Z,41.77
2019-02-24T10:04:22.924Z,43.25
2019-02-24T10:06:50.680Z,45.48
2019-02-24T10:09:18.415Z,44.91
2019-02-24T10:11:46.199Z,42.24
2019-02-24T10:14:13.933Z,42.46
2019-02-24T10:16:41.692Z,43.08
2019-02-24T10:19:12.539Z,46.32
2019-02-24T10:21:41.974Z,43.98
2019-02-24T10:24:09.706Z,45.40
2019-02-24T10:26:37.545Z,45.76
2019-02-24T10:29:05.339Z,46.25
2019-02-24T10:31:33.088Z,45.29
2019-02-24T10:34:04.135Z,44.47
2019-02-24T10:36:32.005Z,44.54
2019-02-24T10:38:59.742Z,43.14
2019-02-24T10:41:27.493Z,43.54
2019-02-24T10:43:55.264Z,47.63
2019-02-24T10:46:25.485Z,45.47
2019-02-24T10:48:53.334Z,45.74
2019-02-24T10:51:25.319Z,43.69
2019-02-24T10:53:52.853Z,43.91
2019-02-24T10:56:20.670Z,44.30
2019-02-24T10:58:49.662Z,44.81
2019-02-24T11:01:29.062Z,43.95
2019-02-24T11:03:50.281Z,43.10
2019-02-24T11:06:20.160Z,43.26
2019-02-24T11:08:50.899Z,44.12
2019-02-24T11:11:21.215Z,43.02
2019-02-24T11:13:49.284Z,42.89
2019-02-24T11:16:17.084Z,43.43
2019-02-24T11:18:44.882Z,43.78
2019-02-24T11:21:12.620Z,44.69
2019-02-24T11:24:17.157Z,43.13
2019-02-24T11:26:57.090Z,44.03
2019-02-24T11:29:25.160Z,45.61
2019-02-24T11:32:00.421Z,43.49
2019-02-24T11:34:31.212Z,44.14
2019-02-24T11:37:00.379Z,42.86
2019-02-24T11:39:28.135Z,43.05
2019-02-24T11:41:56.946Z,43.16
2019-02-24T11:44:24.989Z,43.04
2019-02-24T11:46:55.116Z,43.84
2019-02-24T11:49:24.115Z,43.22
2019-02-24T11:51:51.968Z,44.07
2019-02-24T11:54:20.025Z,44.64
2019-02-24T11:56:47.983Z,45.65
2019-02-24T11:59:19.576Z,44.75
2019-02-24T12:01:47.943Z,43.73
2019-02-24T12:04:15.946Z,44.00
2019-02-24T12:06:43.722Z,44.33
2019-02-24T12:09:11.490Z,44.54
2019-02-24T12:11:41.069Z,44.82
2019-02-24T12:14:08.884Z,44.28
2019-02-24T12:16:36.807Z,44.86
2019-02-24T12:19:04.673Z,43.26
2019-02-24T12:21:55.408Z,44.73
2019-02-24T12:24:23.270Z,44.04
2019-02-24T12:26:51.315Z,43.45
2019-02-24T12:29:20.624Z,44.57
2019-02-24T12:31:56.390Z,43.45
2019-02-24T12:34:18.165Z,44.44
2019-02-24T12:36:45.988Z,44.06
2019-02-24T12:39:13.864Z,44.02
2019-02-24T12:41:41.734Z,44.41
2019-02-24T12:44:12.432Z,43.33
2019-02-24T12:46:40.264Z,44.09
2019-02-24T12:49:09.419Z,43.02
2019-02-24T12:51:41.246Z,43.09
2019-02-24T12:54:10.321Z,43.16
2019-02-24T13:03:24.221Z,42.94
2019-02-24T13:12:47.214Z,42.96
2019-02-24T13:18:32.463Z,43.19
2019-02-24T13:21:18.048Z,43.03
2019-02-24T13:23:48.764Z,42.75
2019-02-24T13:32:36.117Z,42.79
2019-02-24T13:35:04.044Z,42.34
2019-02-24T13:37:31.928Z,42.77
2019-02-24T13:40:00.320Z,42.68
2019-02-24T13:42:28.269Z,42.63
2019-02-24T13:44:56.137Z,42.28
2019-02-24T13:47:24.083Z,42.73
2019-02-24T13:49:51.883Z,42.43
2019-02-24T13:52:19.798Z,42.54
2019-02-24T13:54:47.777Z,42.44
2019-02-24T13:57:15.859Z,42.39
2019-02-24T13:59:43.806Z,42.15
2019-02-24T14:02:12.731Z,42.81
2019-02-24T14:04:41.702Z,42.35
2019-02-24T14:07:09.730Z,42.75
2019-02-24T14:09:38.448Z,42.21
2019-02-24T14:12:06.257Z,42.81
2019-02-24T14:14:34.068Z,42.39
2019-02-24T14:17:02.166Z,42.29
2019-02-24T14:19:30.845Z,42.45
2019-02-24T14:21:59.349Z,42.27
2019-02-24T14:24:41.893Z,42.09
2019-02-24T14:27:10.029Z,42.08
2019-02-24T14:29:37.839Z,41.12
2019-02-24T14:32:05.671Z,40.07
2019-02-24T14:34:33.398Z,38.27
2019-02-24T14:37:03.950Z,40.37
2019-02-24T14:39:35.659Z,41.37
2019-02-24T14:42:04.142Z,40.54
2019-02-24T14:44:32.016Z,41.70
2019-02-24T14:46:59.765Z,41.47
2019-02-24T14:49:27.526Z,41.67
2019-02-24T14:51:55.249Z,41.85
2019-02-24T14:54:23.007Z,42.28
2019-02-24T14:56:50.728Z,41.67
2019-02-24T14:59:18.478Z,41.68
2019-02-24T15:01:46.227Z,42.06
2019-02-24T15:04:13.943Z,41.64
2019-02-24T15:06:41.673Z,41.37
2019-02-24T15:09:09.480Z,38.74
2019-02-24T15:11:37.971Z,37.42
2019-02-24T15:14:08.532Z,39.72
2019-02-24T15:16:42.012Z,37.76
2019-02-24T15:19:09.753Z,38.02
2019-02-24T15:21:37.486Z,36.18
2019-02-24T15:24:05.250Z,36.20
2019-02-24T15:26:33.055Z,36.38
2019-02-24T15:29:00.816Z,36.16
2019-02-24T15:31:28.583Z,36.98
2019-02-24T15:33:56.293Z,36.56
2019-02-24T15:36:24.131Z,37.25
2019-02-24T15:38:51.959Z,37.56
2019-02-24T15:41:29.329Z,40.88
2019-02-24T15:43:49.153Z,36.26
2019-02-24T15:46:16.952Z,41.49
2019-02-24T15:48:44.695Z,40.31
2019-02-24T15:51:12.471Z,39.45
2019-02-24T15:53:40.223Z,41.24
2019-02-24T15:56:07.999Z,37.67
2019-02-24T15:58:35.734Z,40.59
2019-02-24T16:01:03.473Z,41.65
2019-02-24T16:03:31.215Z,41.60
2019-02-24T16:05:59.184Z,41.46
2019-02-24T16:08:26.995Z,41.31
2019-02-24T16:10:54.736Z,41.73
2019-02-24T16:13:22.459Z,41.94
2019-02-24T16:15:50.227Z,42.08
2019-02-24T16:18:17.969Z,41.34
2019-02-24T16:20:45.714Z,41.73
2019-02-24T16:23:13.443Z,41.95
2019-02-24T16:25:41.139Z,41.34
2019-02-24T16:28:08.884Z,41.24
2019-02-24T16:30:36.602Z,41.63
2019-02-24T16:33:10.325Z,41.69
2019-02-24T16:35:33.733Z,41.73
2019-02-24T16:38:13.286Z,41.84
2019-02-24T16:40:34.751Z,42.05
2019-02-24T16:43:02.554Z,41.82
2019-02-24T16:45:30.478Z,41.77
2019-02-24T16:47:58.215Z,41.98
2019-02-24T16:50:26.975Z,41.97
2019-02-24T16:52:54.723Z,41.91
2019-02-24T16:55:22.466Z,41.98
2019-02-24T16:57:50.239Z,41.74
2019-02-24T17:00:18.450Z,41.67
2019-02-24T17:02:46.682Z,41.77
2019-02-24T17:05:14.400Z,40.80
2019-02-24T17:07:42.276Z,41.47
2019-02-24T17:10:10.540Z,41.73
2019-02-24T17:12:40.303Z,41.21
2019-02-24T17:15:08.495Z,41.63
2019-02-24T17:17:55.437Z,41.68
2019-02-24T17:20:23.522Z,41.22
2019-02-24T17:23:13.498Z,41.60
2019-02-24T17:25:40.836Z,41.34
2019-02-24T17:28:08.825Z,40.86
2019-02-24T17:30:36.558Z,41.52
2019-02-24T17:33:04.297Z,41.42
2019-02-24T17:35:32.018Z,41.21
2019-02-24T17:38:01.308Z,40.95
2019-02-24T17:40:31.971Z,41.09
2019-02-24T17:42:59.682Z,40.88
2019-02-24T17:45:27.472Z,41.17
2019-02-24T17:47:55.246Z,40.54
2019-02-24T17:50:22.984Z,40.94
2019-02-24T17:52:50.746Z,40.63
2019-02-24T17:55:18.514Z,40.92
2019-02-24T17:57:46.253Z,40.58
2019-02-24T18:00:15.927Z,40.84
2019-02-24T18:02:43.676Z,40.86
2019-02-24T18:05:11.410Z,41.01
2019-02-24T18:07:39.362Z,40.33
2019-02-24T18:10:07.078Z,40.33
2019-02-24T18:12:34.807Z,39.67
2019-02-24T18:15:02.563Z,40.13
2019-02-24T18:17:30.283Z,40.61
2019-02-24T18:20:08.864Z,40.69
2019-02-24T18:22:36.719Z,40.48
2019-02-24T18:25:06.058Z,40.33
2019-02-24T18:27:33.870Z,40.53
2019-02-24T18:30:01.611Z,40.75
2019-02-24T18:32:29.854Z,40.40
2019-02-24T18:34:57.598Z,40.42
2019-02-24T18:37:25.310Z,39.72
2019-02-24T18:39:53.182Z,39.84
2019-02-24T18:42:20.990Z,40.08
2019-02-24T18:44:48.831Z,39.84
2019-02-24T18:47:16.668Z,39.28
2019-02-24T18:49:44.435Z,39.93
2019-02-24T18:52:12.288Z,40.16
2019-02-24T18:54:40.148Z,40.09
2019-02-24T18:57:09.296Z,40.34
2019-02-24T18:59:37.158Z,39.67
2019-02-24T19:02:04.923Z,39.54
2019-02-24T19:04:32.681Z,39.44
2019-02-24T19:07:00.487Z,40.19
2019-02-24T19:09:28.210Z,40.18
2019-02-24T19:11:56.031Z,40.17
2019-02-24T19:14:23.818Z,40.20
2019-02-24T19:16:51.613Z,40.47
2019-02-24T19:19:25.336Z,40.22
2019-02-24T19:21:48.786Z,40.35
2019-02-24T19:24:16.505Z,40.36
2019-02-24T19:26:44.287Z,40.46
2019-02-24T19:29:11.996Z,40.52
2019-02-24T19:31:39.710Z,40.54
2019-02-24T19:34:07.450Z,40.76
2019-02-24T19:36:35.231Z,40.21
2019-02-24T19:39:09.421Z,40.86
2019-02-24T19:41:34.651Z,40.66
2019-02-24T19:44:05.133Z,40.89
2019-02-24T19:46:32.913Z,40.45
2019-02-24T19:49:00.638Z,40.58
2019-02-24T19:51:28.403Z,40.41
2019-02-24T19:53:56.110Z,40.30
2019-02-24T19:56:23.906Z,40.83
2019-02-24T19:58:51.652Z,40.69
2019-02-24T20:01:19.402Z,40.75
2019-02-24T20:03:47.134Z,40.76
2019-02-24T20:06:15.013Z,40.82
2019-02-24T20:08:42.746Z,40.64
2019-02-24T20:11:10.495Z,40.89
2019-02-24T20:13:38.196Z,40.75
2019-02-24T20:16:06.023Z,40.37
2019-02-24T20:18:33.745Z,40.56
2019-02-24T20:21:03.698Z,40.47
2019-02-24T20:23:36.735Z,40.58
2019-02-24T20:26:04.491Z,40.78
2019-02-24T20:28:32.228Z,40.75
2019-02-24T20:30:59.970Z,40.96
2019-02-24T20:33:27.742Z,41.51
2019-02-24T20:35:55.504Z,40.60
2019-02-24T20:38:23.322Z,40.75
2019-02-24T20:40:51.060Z,40.81
2019-02-24T20:43:18.816Z,40.67
2019-02-24T20:45:46.566Z,41.26
2019-02-24T20:48:14.368Z,40.99
2019-02-24T20:50:42.100Z,41.02
2019-02-24T20:53:09.853Z,40.90
2019-02-24T20:55:37.622Z,40.81
2019-02-24T20:58:05.442Z,40.96
2019-02-24T21:00:34.746Z,40.60
2019-02-24T21:03:04.747Z,40.84
2019-02-24T21:05:34.170Z,41.00
2019-02-24T21:08:01.955Z,40.42
2019-02-24T21:10:30.256Z,40.08
2019-02-24T21:12:58.077Z,40.33
2019-02-24T21:15:25.802Z,40.04
2019-02-24T21:17:53.582Z,39.77
2019-02-24T21:20:22.526Z,40.07
2019-02-24T21:22:50.700Z,39.98
2019-02-24T21:25:18.681Z,39.94
2019-02-24T21:27:46.482Z,40.19
2019-02-24T21:30:14.994Z,40.11
2019-02-24T21:32:42.730Z,40.34
2019-02-24T21:35:10.655Z,39.84
2019-02-24T21:37:38.398Z,40.07
2019-02-24T21:40:06.411Z,39.84
2019-02-24T21:42:34.197Z,39.38
2019-02-24T21:45:11.690Z,39.55
2019-02-24T21:47:39.515Z,40.15
2019-02-24T21:50:07.809Z,39.33
2019-02-24T21:52:35.532Z,39.40
2019-02-24T21:55:03.369Z,39.39
2019-02-24T21:57:31.157Z,39.28
2019-02-24T21:59:59.037Z,39.86
2019-02-24T22:02:29.603Z,39.55
2019-02-24T22:04:58.599Z,40.25
2019-02-24T22:07:26.410Z,40.42
2019-02-24T22:09:54.195Z,39.86
2019-02-24T22:12:21.939Z,40.43
2019-02-24T22:14:49.706Z,40.20
2019-02-24T22:17:17.468Z,39.79
2019-02-24T22:19:46.468Z,39.72
2019-02-24T22:22:20.116Z,39.47
2019-02-24T22:24:47.324Z,39.29
2019-02-24T22:27:16.067Z,39.25
2019-02-24T22:29:43.947Z,39.18
2019-02-24T22:32:11.676Z,39.42
2019-02-24T22:34:39.466Z,39.88
2019-02-24T22:37:07.197Z,39.63
2019-02-24T22:39:34.916Z,39.73
2019-02-24T22:42:02.631Z,41.36
2019-02-24T22:44:30.377Z,40.55
2019-02-24T22:46:59.453Z,39.33
2019-02-24T22:49:27.198Z,39.24
2019-02-24T22:51:54.951Z,39.20
2019-02-24T22:54:22.740Z,39.00
2019-02-24T22:56:50.458Z,39.28
2019-02-24T22:59:18.298Z,38.88
2019-02-24T23:01:56.194Z,39.09
2019-02-24T23:04:21.546Z,38.84
2019-02-24T23:06:49.350Z,39.07
2019-02-24T23:09:20.586Z,38.89
2019-02-24T23:11:48.307Z,38.96
2019-02-24T23:14:16.058Z,39.35
2019-02-24T23:16:43.841Z,39.14
2019-02-24T23:19:11.642Z,38.75
2019-02-24T23:21:39.371Z,39.19
2019-02-24T23:24:07.110Z,39.00
2019-02-24T23:26:35.111Z,38.81
2019-02-24T23:29:02.825Z,38.82
2019-02-24T23:31:30.623Z,38.92
2019-02-24T23:33:58.319Z,38.96
2019-02-24T23:36:26.119Z,38.94
2019-02-24T23:38:53.884Z,39.01
2019-02-24T23:41:21.716Z,38.88
2019-02-24T23:44:01.140Z,38.67
2019-02-24T23:46:28.885Z,38.85
2019-02-24T23:48:56.592Z,38.78
2019-02-24T23:51:24.348Z,38.65
2019-02-24T23:53:52.093Z,38.79
2019-02-24T23:56:19.909Z,38.91
2019-02-24T23:58:47.751Z,38.85
